Airfield :
LOGIN :

Register | Disclaimer

   EN    FR    IT 

 










Legend :    VFR   Marginal VFR   IFR   Intensive IFR   Very Intensive IFR
Visi :
Ceiling :
>= 8 km
>= 3000ft
5 to 8 km
1000 to 3000 ft
1500m to 5 km
500 to 1000 ft
800 to 1500m
200 to 500 ft
< 800m
< 200 ft
Symbols :   Thunderstorms  Fog  Heavy snow  Heavy precipitations  Wind > 20 kt
SIGMETs :     Misc.  Thunderstorms  Icing  Turbulence  Mountain Waves  Volcanic Ashes






- Airport Elevation : 57 ft
- IATA code : KRS


ENCN - Kristiansand Kjevik

CURRENT METAR :
  • 201620Z 05012KT 9999 -DZ BKN007 04/04 Q1021

EXPIRED METARs :
  • 201550Z 04013KT 9999 FEW005 BKN008 04/04 Q1021
  • 201520Z 04011KT 9999 -DZ BKN009 05/03 Q1021
  • 201450Z 04011KT 9999 BKN010 05/03 Q1021
  • 201420Z 05011KT 9999 BKN011 05/03 Q1021
  • 201350Z 05012KT 9999 FEW006 BKN011 05/03 Q1021

TAF TAF ENCN
Valid from the 20 at 15:00 until the 20 at 22:00 UTC


201400Z 2015/2022 04012KT 9999 FEW006 BKN012
TEMPO 2015/2021 BKN004



MET'MAP, your aeronautical weather chart ! - Copyright ORBIFLY December 2007 - Disclaimer

ORBIFLY MET'MAP TEAM :

Programming & Development : Alexandra Zaïnal
Concept & Development : Baudouin d'Aumeries
Co-Development & Prog : Marc-Olivier Méhu
Technical & hardware support : Manuel Goepfert

Contact : metmap@orbifly.com




SOURCES & CREDITS :

   NOAA